sensor_id;sensor_type;location;lat;lon;timestamp;pressure;altitude;pressure_sealevel;temperature;humidity
76827;BME280;65788;52.284;20.890;2023-11-21T00:00:03;99695.97;;;18.95;40.77
76827;BME280;65788;52.284;20.890;2023-11-21T00:02:32;99696.95;;;18.85;40.92
76827;BME280;65788;52.284;20.890;2023-11-21T00:04:59;99698.43;;;18.83;40.92
76827;BME280;65788;52.284;20.890;2023-11-21T00:07:25;99702.54;;;18.79;40.93
76827;BME280;65788;52.284;20.890;2023-11-21T00:09:52;99701.22;;;18.71;41.04
76827;BME280;65788;52.284;20.890;2023-11-21T00:12:22;99709.09;;;18.67;41.05
76827;BME280;65788;52.284;20.890;2023-11-21T00:14:51;99711.10;;;18.62;41.10
76827;BME280;65788;52.284;20.890;2023-11-21T00:17:18;99722.07;;;18.57;41.12
76827;BME280;65788;52.284;20.890;2023-11-21T00:19:45;99726.67;;;18.51;41.18
76827;BME280;65788;52.284;20.890;2023-11-21T00:22:12;99728.08;;;18.48;41.21
76827;BME280;65788;52.284;20.890;2023-11-21T00:24:39;99729.71;;;18.46;41.21
76827;BME280;65788;52.284;20.890;2023-11-21T00:27:06;99725.01;;;18.44;41.16
76827;BME280;65788;52.284;20.890;2023-11-21T00:29:33;99728.29;;;18.40;41.19
76827;BME280;65788;52.284;20.890;2023-11-21T00:32:00;99730.58;;;18.35;41.23
76827;BME280;65788;52.284;20.890;2023-11-21T00:34:27;99728.66;;;18.32;41.26
76827;BME280;65788;52.284;20.890;2023-11-21T00:36:54;99727.69;;;18.31;41.25
76827;BME280;65788;52.284;20.890;2023-11-21T00:39:21;99729.97;;;18.28;41.27
76827;BME280;65788;52.284;20.890;2023-11-21T00:41:48;99733.86;;;18.24;41.33
76827;BME280;65788;52.284;20.890;2023-11-21T00:44:15;99733.10;;;18.23;41.28
76827;BME280;65788;52.284;20.890;2023-11-21T00:46:42;99735.88;;;18.20;41.31
76827;BME280;65788;52.284;20.890;2023-11-21T00:49:09;99733.17;;;18.19;41.25
76827;BME280;65788;52.284;20.890;2023-11-21T00:51:37;99731.50;;;18.14;41.33
76827;BME280;65788;52.284;20.890;2023-11-21T00:54:05;99731.23;;;18.13;41.32
76827;BME280;65788;52.284;20.890;2023-11-21T00:56:33;99737.44;;;18.13;41.25
76827;BME280;65788;52.284;20.890;2023-11-21T00:59:00;99738.64;;;18.11;41.24
76827;BME280;65788;52.284;20.890;2023-11-21T01:01:27;99739.41;;;18.08;41.26
76827;BME280;65788;52.284;20.890;2023-11-21T01:03:54;99741.16;;;18.02;41.34
76827;BME280;65788;52.284;20.890;2023-11-21T01:06:21;99739.20;;;18.03;41.30
76827;BME280;65788;52.284;20.890;2023-11-21T01:08:48;99739.90;;;18.01;41.27
76827;BME280;65788;52.284;20.890;2023-11-21T01:11:15;99743.10;;;18.02;41.23
76827;BME280;65788;52.284;20.890;2023-11-21T01:13:42;99752.66;;;18.00;41.24
76827;BME280;65788;52.284;20.890;2023-11-21T01:16:11;99756.33;;;17.99;41.22
76827;BME280;65788;52.284;20.890;2023-11-21T01:18:38;99759.64;;;17.95;41.25
76827;BME280;65788;52.284;20.890;2023-11-21T01:21:05;99758.42;;;17.93;41.22
76827;BME280;65788;52.284;20.890;2023-11-21T01:23:35;99764.13;;;17.93;41.23
76827;BME280;65788;52.284;20.890;2023-11-21T01:26:02;99768.36;;;17.92;41.22
76827;BME280;65788;52.284;20.890;2023-11-21T01:28:30;99767.45;;;17.90;41.21
76827;BME280;65788;52.284;20.890;2023-11-21T01:30:56;99762.30;;;17.89;41.22
76827;BME280;65788;52.284;20.890;2023-11-21T01:33:24;99758.54;;;17.88;41.21
76827;BME280;65788;52.284;20.890;2023-11-21T01:35:51;99761.84;;;17.86;41.19
76827;BME280;65788;52.284;20.890;2023-11-21T01:38:21;99761.23;;;17.87;41.17
76827;BME280;65788;52.284;20.890;2023-11-21T01:40:49;99763.25;;;17.84;41.18
76827;BME280;65788;52.284;20.890;2023-11-21T01:43:15;99763.73;;;17.82;41.18
76827;BME280;65788;52.284;20.890;2023-11-21T01:45:43;99762.59;;;17.81;41.17
76827;BME280;65788;52.284;20.890;2023-11-21T01:48:12;99764.02;;;17.79;41.18
76827;BME280;65788;52.284;20.890;2023-11-21T01:50:41;99765.94;;;17.80;41.14
76827;BME280;65788;52.284;20.890;2023-11-21T01:53:08;99773.04;;;17.77;41.17
76827;BME280;65788;52.284;20.890;2023-11-21T01:55:35;99774.45;;;17.76;41.16
76827;BME280;65788;52.284;20.890;2023-11-21T01:58:05;99776.88;;;17.76;41.14
76827;BME280;65788;52.284;20.890;2023-11-21T02:00:34;99775.66;;;17.73;41.18
76827;BME280;65788;52.284;20.890;2023-11-21T02:03:02;99770.13;;;17.73;41.14
76827;BME280;65788;52.284;20.890;2023-11-21T02:05:31;99766.21;;;17.72;41.13
76827;BME280;65788;52.284;20.890;2023-11-21T02:08:01;99766.05;;;17.71;41.13
76827;BME280;65788;52.284;20.890;2023-11-21T02:10:30;99765.61;;;17.69;41.09
76827;BME280;65788;52.284;20.890;2023-11-21T02:12:57;99765.31;;;17.67;41.14
76827;BME280;65788;52.284;20.890;2023-11-21T02:15:25;99767.59;;;17.67;41.13
76827;BME280;65788;52.284;20.890;2023-11-21T02:17:55;99772.75;;;17.66;41.14
76827;BME280;65788;52.284;20.890;2023-11-21T02:20:24;99774.23;;;17.66;41.11
76827;BME280;65788;52.284;20.890;2023-11-21T02:22:54;99777.86;;;17.65;41.09
76827;BME280;65788;52.284;20.890;2023-11-21T02:25:31;99782.52;;;17.63;41.11
76827;BME280;65788;52.284;20.890;2023-11-21T02:28:03;99785.27;;;17.65;41.06
76827;BME280;65788;52.284;20.890;2023-11-21T02:30:32;99787.16;;;17.63;41.04
76827;BME280;65788;52.284;20.890;2023-11-21T02:33:00;99787.20;;;17.63;41.00
76827;BME280;65788;52.284;20.890;2023-11-21T02:35:27;99783.82;;;17.61;41.02
76827;BME280;65788;52.284;20.890;2023-11-21T02:37:55;99786.97;;;17.61;41.01
76827;BME280;65788;52.284;20.890;2023-11-21T02:40:22;99785.84;;;17.57;41.07
76827;BME280;65788;52.284;20.890;2023-11-21T02:42:51;99787.45;;;17.55;41.08
76827;BME280;65788;52.284;20.890;2023-11-21T02:45:19;99787.98;;;17.56;41.02
76827;BME280;65788;52.284;20.890;2023-11-21T02:48:07;99790.23;;;17.56;40.99
76827;BME280;65788;52.284;20.890;2023-11-21T02:50:34;99793.59;;;17.52;41.04
76827;BME280;65788;52.284;20.890;2023-11-21T02:53:03;99796.73;;;17.50;41.04
76827;BME280;65788;52.284;20.890;2023-11-21T02:55:32;99803.17;;;17.51;41.02
76827;BME280;65788;52.284;20.890;2023-11-21T02:58:02;99808.02;;;17.50;41.01
76827;BME280;65788;52.284;20.890;2023-11-21T03:00:32;99803.48;;;17.49;41.02
76827;BME280;65788;52.284;20.890;2023-11-21T03:02:59;99805.83;;;17.49;40.98
76827;BME280;65788;52.284;20.890;2023-11-21T03:05:27;99800.98;;;17.48;40.97
76827;BME280;65788;52.284;20.890;2023-11-21T03:07:55;99802.09;;;17.48;40.94
76827;BME280;65788;52.284;20.890;2023-11-21T03:10:24;99803.73;;;17.46;40.99
76827;BME280;65788;52.284;20.890;2023-11-21T03:12:53;99806.52;;;17.47;40.95
76827;BME280;65788;52.284;20.890;2023-11-21T03:15:20;99802.27;;;17.44;40.96
76827;BME280;65788;52.284;20.890;2023-11-21T03:17:46;99802.73;;;17.46;40.90
76827;BME280;65788;52.284;20.890;2023-11-21T03:20:17;99803.48;;;17.45;40.90
76827;BME280;65788;52.284;20.890;2023-11-21T03:22:44;99801.98;;;17.44;40.88
76827;BME280;65788;52.284;20.890;2023-11-21T03:25:15;99805.36;;;17.42;40.89
76827;BME280;65788;52.284;20.890;2023-11-21T03:27:43;99807.44;;;17.43;40.86
76827;BME280;65788;52.284;20.890;2023-11-21T03:30:11;99808.39;;;17.43;40.84
76827;BME280;65788;52.284;20.890;2023-11-21T03:32:38;99809.75;;;17.42;40.85
76827;BME280;65788;52.284;20.890;2023-11-21T03:35:06;99810.15;;;17.41;40.82
76827;BME280;65788;52.284;20.890;2023-11-21T03:37:33;99811.82;;;17.38;40.87
76827;BME280;65788;52.284;20.890;2023-11-21T03:40:00;99810.71;;;17.38;40.85
76827;BME280;65788;52.284;20.890;2023-11-21T03:42:27;99816.71;;;17.38;40.83
76827;BME280;65788;52.284;20.890;2023-11-21T03:44:54;99819.27;;;17.36;40.83
76827;BME280;65788;52.284;20.890;2023-11-21T03:47:21;99816.52;;;17.35;40.82
76827;BME280;65788;52.284;20.890;2023-11-21T03:49:49;99821.67;;;17.35;40.81
76827;BME280;65788;52.284;20.890;2023-11-21T03:52:16;99825.85;;;17.34;40.85
76827;BME280;65788;52.284;20.890;2023-11-21T03:54:43;99833.27;;;17.31;41.00
76827;BME280;65788;52.284;20.890;2023-11-21T03:57:11;99836.69;;;17.28;41.04
76827;BME280;65788;52.284;20.890;2023-11-21T03:59:41;99838.73;;;17.28;41.07
76827;BME280;65788;52.284;20.890;2023-11-21T04:02:09;99843.11;;;17.28;41.10
76827;BME280;65788;52.284;20.890;2023-11-21T04:04:36;99843.33;;;17.25;41.16
76827;BME280;65788;52.284;20.890;2023-11-21T04:07:03;99843.18;;;17.24;41.24
76827;BME280;65788;52.284;20.890;2023-11-21T04:09:31;99841.91;;;17.24;41.22
76827;BME280;65788;52.284;20.890;2023-11-21T04:11:58;99843.94;;;17.24;41.25
76827;BME280;65788;52.284;20.890;2023-11-21T04:14:25;99844.94;;;17.22;41.25
76827;BME280;65788;52.284;20.890;2023-11-21T04:16:51;99847.40;;;17.23;41.22
76827;BME280;65788;52.284;20.890;2023-11-21T04:19:20;99844.21;;;17.22;41.22
76827;BME280;65788;52.284;20.890;2023-11-21T04:21:47;99846.98;;;17.22;41.22
76827;BME280;65788;52.284;20.890;2023-11-21T04:24:15;99848.87;;;17.18;41.40
76827;BME280;65788;52.284;20.890;2023-11-21T04:26:41;99851.98;;;17.18;41.36
76827;BME280;65788;52.284;20.890;2023-11-21T04:29:08;99854.87;;;17.18;41.37
76827;BME280;65788;52.284;20.890;2023-11-21T04:31:36;99861.98;;;17.18;41.40
76827;BME280;65788;52.284;20.890;2023-11-21T04:34:03;99862.10;;;17.18;41.40
76827;BME280;65788;52.284;20.890;2023-11-21T04:36:30;99867.97;;;17.18;41.33
76827;BME280;65788;52.284;20.890;2023-11-21T04:38:58;99873.77;;;17.16;41.37
76827;BME280;65788;52.284;20.890;2023-11-21T04:41:27;99882.70;;;17.15;41.38
76827;BME280;65788;52.284;20.890;2023-11-21T04:43:54;99883.67;;;17.15;41.32
76827;BME280;65788;52.284;20.890;2023-11-21T04:46:21;99885.67;;;17.14;41.32
76827;BME280;65788;52.284;20.890;2023-11-21T04:48:48;99879.98;;;17.15;41.34
76827;BME280;65788;52.284;20.890;2023-11-21T04:51:15;99877.26;;;17.15;41.37
76827;BME280;65788;52.284;20.890;2023-11-21T04:53:42;99874.64;;;17.20;41.18
76827;BME280;65788;52.284;20.890;2023-11-21T04:56:09;99878.72;;;17.29;40.97
76827;BME280;65788;52.284;20.890;2023-11-21T04:58:36;99882.23;;;17.39;40.67
76827;BME280;65788;52.284;20.890;2023-11-21T05:01:04;99880.48;;;17.48;40.44
76827;BME280;65788;52.284;20.890;2023-11-21T05:03:31;99879.53;;;17.57;40.21
76827;BME280;65788;52.284;20.890;2023-11-21T05:06:00;99879.88;;;17.67;39.97
76827;BME280;65788;52.284;20.890;2023-11-21T05:08:27;99884.84;;;17.77;39.79
76827;BME280;65788;52.284;20.890;2023-11-21T05:10:54;99893.20;;;17.85;39.62
76827;BME280;65788;52.284;20.890;2023-11-21T05:13:23;99891.34;;;17.90;39.52
76827;BME280;65788;52.284;20.890;2023-11-21T05:15:56;99892.17;;;17.97;39.37
76827;BME280;65788;52.284;20.890;2023-11-21T05:18:26;99897.19;;;18.03;39.22
76827;BME280;65788;52.284;20.890;2023-11-21T05:20:56;99901.53;;;18.09;39.13
76827;BME280;65788;52.284;20.890;2023-11-21T05:23:23;99900.66;;;18.15;39.04
76827;BME280;65788;52.284;20.890;2023-11-21T05:25:50;99899.98;;;18.18;38.98
76827;BME280;65788;52.284;20.890;2023-11-21T05:28:17;99904.94;;;18.22;38.93
76827;BME280;65788;52.284;20.890;2023-11-21T05:30:44;99911.63;;;18.25;38.95
76827;BME280;65788;52.284;20.890;2023-11-21T05:33:10;99912.91;;;18.27;38.97
76827;BME280;65788;52.284;20.890;2023-11-21T05:35:37;99913.44;;;18.31;38.97
76827;BME280;65788;52.284;20.890;2023-11-21T05:38:04;99917.32;;;18.35;38.95
76827;BME280;65788;52.284;20.890;2023-11-21T05:40:31;99918.86;;;18.38;38.95
76827;BME280;65788;52.284;20.890;2023-11-21T05:42:59;99920.55;;;18.41;38.96
76827;BME280;65788;52.284;20.890;2023-11-21T05:45:26;99921.59;;;18.44;38.96
76827;BME280;65788;52.284;20.890;2023-11-21T05:47:53;99920.34;;;18.45;39.03
76827;BME280;65788;52.284;20.890;2023-11-21T05:50:20;99923.68;;;18.47;39.02
76827;BME280;65788;52.284;20.890;2023-11-21T05:52:47;99926.05;;;18.48;39.02
76827;BME280;65788;52.284;20.890;2023-11-21T05:55:14;99932.73;;;18.51;39.02
76827;BME280;65788;52.284;20.890;2023-11-21T05:57:43;99932.41;;;18.54;38.99
76827;BME280;65788;52.284;20.890;2023-11-21T06:00:12;99935.25;;;18.55;39.00
76827;BME280;65788;52.284;20.890;2023-11-21T06:02:49;99938.50;;;18.58;38.95
76827;BME280;65788;52.284;20.890;2023-11-21T06:05:24;99941.67;;;18.60;38.93
76827;BME280;65788;52.284;20.890;2023-11-21T06:07:52;99945.02;;;18.63;38.90
76827;BME280;65788;52.284;20.890;2023-11-21T06:10:21;99949.13;;;18.65;38.90
76827;BME280;65788;52.284;20.890;2023-11-21T06:12:51;99951.68;;;18.70;38.96
76827;BME280;65788;52.284;20.890;2023-11-21T06:15:18;99954.43;;;18.72;39.01
76827;BME280;65788;52.284;20.890;2023-11-21T06:17:47;99959.27;;;18.73;39.02
76827;BME280;65788;52.284;20.890;2023-11-21T06:20:19;99962.64;;;18.75;39.01
76827;BME280;65788;52.284;20.890;2023-11-21T06:22:48;99965.10;;;18.77;38.97
76827;BME280;65788;52.284;20.890;2023-11-21T06:25:15;99962.59;;;18.79;38.93
76827;BME280;65788;52.284;20.890;2023-11-21T06:27:43;99968.90;;;18.83;38.84
76827;BME280;65788;52.284;20.890;2023-11-21T06:30:15;99973.48;;;18.86;38.76
76827;BME280;65788;52.284;20.890;2023-11-21T06:32:42;99976.21;;;18.88;38.73
76827;BME280;65788;52.284;20.890;2023-11-21T06:35:13;99977.48;;;18.89;38.71
76827;BME280;65788;52.284;20.890;2023-11-21T06:37:40;99973.77;;;18.91;38.66
76827;BME280;65788;52.284;20.890;2023-11-21T06:40:07;99977.39;;;18.92;38.62
76827;BME280;65788;52.284;20.890;2023-11-21T06:42:36;99979.02;;;18.93;38.58
76827;BME280;65788;52.284;20.890;2023-11-21T06:45:05;99977.10;;;18.95;38.56
76827;BME280;65788;52.284;20.890;2023-11-21T06:47:34;99980.83;;;18.97;38.51
76827;BME280;65788;52.284;20.890;2023-11-21T06:50:01;99984.59;;;18.99;38.47
76827;BME280;65788;52.284;20.890;2023-11-21T06:52:27;99989.96;;;19.00;38.42
76827;BME280;65788;52.284;20.890;2023-11-21T06:54:54;99992.95;;;19.02;38.40
76827;BME280;65788;52.284;20.890;2023-11-21T06:57:25;100000.44;;;19.05;38.32
76827;BME280;65788;52.284;20.890;2023-11-21T06:59:51;100002.30;;;19.08;38.28
76827;BME280;65788;52.284;20.890;2023-11-21T07:02:18;100002.16;;;19.09;38.25
76827;BME280;65788;52.284;20.890;2023-11-21T07:04:46;100006.02;;;19.10;38.22
76827;BME280;65788;52.284;20.890;2023-11-21T07:07:13;100007.17;;;19.10;38.20
76827;BME280;65788;52.284;20.890;2023-11-21T07:09:39;100009.23;;;19.12;38.16
76827;BME280;65788;52.284;20.890;2023-11-21T07:12:08;100016.57;;;19.14;38.11
76827;BME280;65788;52.284;20.890;2023-11-21T07:14:35;100021.34;;;19.15;38.08
76827;BME280;65788;52.284;20.890;2023-11-21T07:17:02;100020.08;;;19.16;38.04
76827;BME280;65788;52.284;20.890;2023-11-21T07:19:29;100015.81;;;19.16;38.01
76827;BME280;65788;52.284;20.890;2023-11-21T07:21:56;100019.00;;;19.17;37.97
76827;BME280;65788;52.284;20.890;2023-11-21T07:24:23;100018.52;;;19.18;37.98
76827;BME280;65788;52.284;20.890;2023-11-21T07:26:50;100022.05;;;19.19;37.95
76827;BME280;65788;52.284;20.890;2023-11-21T07:29:17;100025.34;;;19.19;37.94
76827;BME280;65788;52.284;20.890;2023-11-21T07:31:44;100025.67;;;19.23;37.83
76827;BME280;65788;52.284;20.890;2023-11-21T07:34:11;100028.86;;;19.24;37.91
76827;BME280;65788;52.284;20.890;2023-11-21T07:36:39;100025.92;;;19.24;38.22
76827;BME280;65788;52.284;20.890;2023-11-21T07:39:05;100026.41;;;19.27;38.35
76827;BME280;65788;52.284;20.890;2023-11-21T07:41:33;100027.19;;;19.30;38.34
76827;BME280;65788;52.284;20.890;2023-11-21T07:44:00;100030.11;;;19.32;38.30
76827;BME280;65788;52.284;20.890;2023-11-21T07:46:27;100034.86;;;19.33;38.31
76827;BME280;65788;52.284;20.890;2023-11-21T07:48:54;100032.17;;;19.34;38.28
76827;BME280;65788;52.284;20.890;2023-11-21T07:51:21;100032.75;;;19.35;38.27
76827;BME280;65788;52.284;20.890;2023-11-21T07:53:49;100037.61;;;19.39;38.20
76827;BME280;65788;52.284;20.890;2023-11-21T07:56:16;100038.09;;;19.35;38.27
76827;BME280;65788;52.284;20.890;2023-11-21T07:58:43;100040.14;;;19.39;38.19
76827;BME280;65788;52.284;20.890;2023-11-21T08:01:11;100043.98;;;19.44;38.20
76827;BME280;65788;52.284;20.890;2023-11-21T08:03:38;100042.16;;;19.46;38.48
76827;BME280;65788;52.284;20.890;2023-11-21T08:06:06;100046.12;;;19.50;38.82
76827;BME280;65788;52.284;20.890;2023-11-21T08:08:33;100050.42;;;19.51;38.95
76827;BME280;65788;52.284;20.890;2023-11-21T08:11:00;100052.33;;;19.52;39.05
76827;BME280;65788;52.284;20.890;2023-11-21T08:13:29;100051.65;;;19.51;39.12
76827;BME280;65788;52.284;20.890;2023-11-21T08:15:57;100055.25;;;19.51;39.16
76827;BME280;65788;52.284;20.890;2023-11-21T08:18:34;100054.35;;;19.54;39.04
76827;BME280;65788;52.284;20.890;2023-11-21T08:21:02;100052.23;;;19.57;38.97
76827;BME280;65788;52.284;20.890;2023-11-21T08:23:30;100050.39;;;19.60;38.85
76827;BME280;65788;52.284;20.890;2023-11-21T08:25:56;100053.13;;;19.60;38.78
76827;BME280;65788;52.284;20.890;2023-11-21T08:28:23;100055.94;;;19.60;38.74
76827;BME280;65788;52.284;20.890;2023-11-21T08:30:52;100058.94;;;19.59;38.65
76827;BME280;65788;52.284;20.890;2023-11-21T08:33:21;100060.25;;;19.57;38.63
76827;BME280;65788;52.284;20.890;2023-11-21T08:35:48;100065.03;;;19.57;38.69
76827;BME280;65788;52.284;20.890;2023-11-21T08:38:15;100070.02;;;19.61;39.15
76827;BME280;65788;52.284;20.890;2023-11-21T08:40:42;100070.33;;;19.61;39.12
76827;BME280;65788;52.284;20.890;2023-11-21T08:43:09;100075.12;;;19.60;39.02
76827;BME280;65788;52.284;20.890;2023-11-21T08:45:36;100081.12;;;19.61;38.91
76827;BME280;65788;52.284;20.890;2023-11-21T08:48:05;100084.01;;;19.60;38.94
76827;BME280;65788;52.284;20.890;2023-11-21T08:50:32;100085.80;;;19.64;38.82
76827;BME280;65788;52.284;20.890;2023-11-21T08:52:59;100088.45;;;19.64;38.80
76827;BME280;65788;52.284;20.890;2023-11-21T08:55:27;100090.52;;;19.65;38.74
76827;BME280;65788;52.284;20.890;2023-11-21T08:57:55;100092.52;;;19.61;38.78
76827;BME280;65788;52.284;20.890;2023-11-21T09:00:23;100095.50;;;19.59;38.78
76827;BME280;65788;52.284;20.890;2023-11-21T09:02:50;100097.08;;;19.56;39.20
76827;BME280;65788;52.284;20.890;2023-11-21T09:05:21;100099.65;;;19.69;41.60
76827;BME280;65788;52.284;20.890;2023-11-21T09:07:48;100102.10;;;19.75;41.87
76827;BME280;65788;52.284;20.890;2023-11-21T09:10:16;100107.63;;;19.77;41.50
76827;BME280;65788;52.284;20.890;2023-11-21T09:12:44;100110.11;;;19.78;41.27
76827;BME280;65788;52.284;20.890;2023-11-21T09:15:12;100113.11;;;19.81;41.07
76827;BME280;65788;52.284;20.890;2023-11-21T09:17:39;100113.67;;;19.88;40.51
76827;BME280;65788;52.284;20.890;2023-11-21T09:20:07;100113.53;;;19.85;40.79
76827;BME280;65788;52.284;20.890;2023-11-21T09:22:36;100113.75;;;19.91;39.87
76827;BME280;65788;52.284;20.890;2023-11-21T09:25:04;100111.60;;;19.94;40.15
76827;BME280;65788;52.284;20.890;2023-11-21T09:27:33;100112.79;;;20.00;38.56
76827;BME280;65788;52.284;20.890;2023-11-21T09:30:00;100115.54;;;20.03;38.14
76827;BME280;65788;52.284;20.890;2023-11-21T09:32:30;100116.94;;;20.11;38.42
76827;BME280;65788;52.284;20.890;2023-11-21T09:34:57;100117.14;;;20.08;37.91
76827;BME280;65788;52.284;20.890;2023-11-21T09:37:25;100114.23;;;20.08;37.79
76827;BME280;65788;52.284;20.890;2023-11-21T09:39:53;100119.80;;;20.10;37.65
76827;BME280;65788;52.284;20.890;2023-11-21T09:42:40;100114.42;;;20.11;37.27
76827;BME280;65788;52.284;20.890;2023-11-21T09:45:26;100118.20;;;20.13;37.48
76827;BME280;65788;52.284;20.890;2023-11-21T09:47:55;100119.11;;;20.11;37.36
76827;BME280;65788;52.284;20.890;2023-11-21T09:50:23;100115.56;;;20.10;36.92
76827;BME280;65788;52.284;20.890;2023-11-21T09:55:43;100118.42;;;20.15;36.70
76827;BME280;65788;52.284;20.890;2023-11-21T09:58:11;100121.30;;;20.20;37.01
76827;BME280;65788;52.284;20.890;2023-11-21T10:00:46;100123.69;;;20.20;36.46
76827;BME280;65788;52.284;20.890;2023-11-21T10:03:14;100121.94;;;20.17;36.41
76827;BME280;65788;52.284;20.890;2023-11-21T10:05:43;100122.89;;;20.13;36.62
76827;BME280;65788;52.284;20.890;2023-11-21T10:08:11;100126.36;;;20.22;36.32
76827;BME280;65788;52.284;20.890;2023-11-21T10:10:46;100130.90;;;20.21;36.36
76827;BME280;65788;52.284;20.890;2023-11-21T10:13:22;100129.55;;;20.19;36.01
76827;BME280;65788;52.284;20.890;2023-11-21T10:15:51;100131.39;;;20.19;36.57
76827;BME280;65788;52.284;20.890;2023-11-21T10:18:19;100132.23;;;20.20;36.55
76827;BME280;65788;52.284;20.890;2023-11-21T10:20:49;100134.87;;;20.25;36.58
76827;BME280;65788;52.284;20.890;2023-11-21T10:23:19;100132.80;;;20.24;36.74
76827;BME280;65788;52.284;20.890;2023-11-21T10:25:49;100133.06;;;20.25;36.88
76827;BME280;65788;52.284;20.890;2023-11-21T10:28:18;100135.17;;;20.25;36.96
76827;BME280;65788;52.284;20.890;2023-11-21T10:30:47;100135.54;;;20.23;37.06
76827;BME280;65788;52.284;20.890;2023-11-21T10:33:14;100132.19;;;20.20;36.95
76827;BME280;65788;52.284;20.890;2023-11-21T10:35:48;100135.61;;;20.21;36.92
76827;BME280;65788;52.284;20.890;2023-11-21T10:38:21;100133.95;;;20.21;36.88
76827;BME280;65788;52.284;20.890;2023-11-21T10:40:51;100141.89;;;20.21;36.83
76827;BME280;65788;52.284;20.890;2023-11-21T10:43:19;100144.48;;;20.22;36.80
76827;BME280;65788;52.284;20.890;2023-11-21T10:45:46;100153.64;;;20.22;36.78
76827;BME280;65788;52.284;20.890;2023-11-21T10:48:15;100154.58;;;20.22;36.75
76827;BME280;65788;52.284;20.890;2023-11-21T10:50:45;100156.48;;;20.22;36.70
76827;BME280;65788;52.284;20.890;2023-11-21T10:53:12;100150.77;;;20.22;36.69
76827;BME280;65788;52.284;20.890;2023-11-21T10:55:39;100147.60;;;20.22;36.69
76827;BME280;65788;52.284;20.890;2023-11-21T10:58:06;100152.31;;;20.22;36.69
76827;BME280;65788;52.284;20.890;2023-11-21T11:00:37;100154.41;;;20.37;37.65
76827;BME280;65788;52.284;20.890;2023-11-21T11:03:06;100155.89;;;20.38;37.07
76827;BME280;65788;52.284;20.890;2023-11-21T11:05:43;100156.77;;;20.42;37.48
76827;BME280;65788;52.284;20.890;2023-11-21T11:08:18;100156.41;;;20.50;36.98
76827;BME280;65788;52.284;20.890;2023-11-21T11:10:46;100156.37;;;20.44;37.11
76827;BME280;65788;52.284;20.890;2023-11-21T11:13:16;100156.38;;;20.40;36.47
76827;BME280;65788;52.284;20.890;2023-11-21T11:15:47;100156.73;;;20.41;36.39
76827;BME280;65788;52.284;20.890;2023-11-21T11:18:15;100156.09;;;20.36;36.44
76827;BME280;65788;52.284;20.890;2023-11-21T11:20:43;100161.73;;;20.39;36.44
76827;BME280;65788;52.284;20.890;2023-11-21T11:26:27;100166.01;;;20.39;36.31
76827;BME280;65788;52.284;20.890;2023-11-21T11:34:41;100164.04;;;20.50;35.96
76827;BME280;65788;52.284;20.890;2023-11-21T11:37:11;100167.07;;;20.49;35.70
76827;BME280;65788;52.284;20.890;2023-11-21T11:39:43;100169.66;;;20.44;35.78
76827;BME280;65788;52.284;20.890;2023-11-21T11:42:14;100168.80;;;20.44;35.88
76827;BME280;65788;52.284;20.890;2023-11-21T11:47:35;100175.69;;;16.51;40.47
76827;BME280;65788;52.284;20.890;2023-11-21T11:50:11;100174.64;;;17.09;41.47
76827;BME280;65788;52.284;20.890;2023-11-21T11:52:47;100170.09;;;19.03;38.31
76827;BME280;65788;52.284;20.890;2023-11-21T11:55:16;100171.67;;;19.47;37.42
76827;BME280;65788;52.284;20.890;2023-11-21T11:57:52;100174.08;;;19.67;36.58
76827;BME280;65788;52.284;20.890;2023-11-21T12:00:35;100174.55;;;19.80;36.36
76827;BME280;65788;52.284;20.890;2023-11-21T12:03:08;100171.05;;;19.92;36.08
76827;BME280;65788;52.284;20.890;2023-11-21T12:05:36;100170.01;;;19.98;35.94
76827;BME280;65788;52.284;20.890;2023-11-21T12:08:06;100172.37;;;20.00;35.90
76827;BME280;65788;52.284;20.890;2023-11-21T12:10:35;100178.85;;;20.08;35.60
76827;BME280;65788;52.284;20.890;2023-11-21T12:13:06;100180.33;;;20.09;35.47
76827;BME280;65788;52.284;20.890;2023-11-21T12:15:37;100184.96;;;20.08;35.30
76827;BME280;65788;52.284;20.890;2023-11-21T12:18:04;100182.08;;;20.10;35.52
76827;BME280;65788;52.284;20.890;2023-11-21T12:20:33;100188.77;;;20.16;35.20
76827;BME280;65788;52.284;20.890;2023-11-21T12:23:05;100190.58;;;20.21;35.30
76827;BME280;65788;52.284;20.890;2023-11-21T12:25:32;100194.30;;;20.21;35.22
76827;BME280;65788;52.284;20.890;2023-11-21T12:28:01;100193.40;;;20.21;35.47
76827;BME280;65788;52.284;20.890;2023-11-21T12:30:30;100198.47;;;20.25;35.46
76827;BME280;65788;52.284;20.890;2023-11-21T12:32:59;100197.24;;;20.27;35.47
76827;BME280;65788;52.284;20.890;2023-11-21T12:35:31;100193.23;;;20.27;35.58
76827;BME280;65788;52.284;20.890;2023-11-21T12:38:04;100196.21;;;20.28;35.53
76827;BME280;65788;52.284;20.890;2023-11-21T12:40:31;100196.08;;;20.35;35.75
76827;BME280;65788;52.284;20.890;2023-11-21T12:42:59;100197.17;;;20.33;35.67
76827;BME280;65788;52.284;20.890;2023-11-21T12:45:28;100200.73;;;20.42;36.11
76827;BME280;65788;52.284;20.890;2023-11-21T12:47:59;100203.27;;;20.48;35.34
76827;BME280;65788;52.284;20.890;2023-11-21T12:50:28;100201.86;;;20.41;35.38
76827;BME280;65788;52.284;20.890;2023-11-21T12:55:30;100206.83;;;20.36;35.49
76827;BME280;65788;52.284;20.890;2023-11-21T12:57:57;100210.07;;;20.41;35.57
76827;BME280;65788;52.284;20.890;2023-11-21T13:00:32;100210.13;;;20.46;35.39
76827;BME280;65788;52.284;20.890;2023-11-21T13:03:00;100209.93;;;20.45;35.32
76827;BME280;65788;52.284;20.890;2023-11-21T13:05:33;100217.14;;;20.47;35.42
76827;BME280;65788;52.284;20.890;2023-11-21T13:08:04;100223.05;;;20.45;35.30